createdAt,value
2019-01-02T00:02:08.771Z,29.73
2019-01-02T00:04:38.578Z,31.90
2019-01-02T00:07:08.966Z,25.93
2019-01-02T00:09:38.840Z,33.07
2019-01-02T00:12:08.906Z,33.30
2019-01-02T00:14:38.623Z,34.27
2019-01-02T00:17:09.077Z,28.83
2019-01-02T00:19:38.860Z,34.60
2019-01-02T00:22:08.799Z,26.43
2019-01-02T00:24:38.646Z,32.43
2019-01-02T00:27:08.308Z,31.30
2019-01-02T00:29:38.437Z,34.27
2019-01-02T00:32:08.248Z,33.83
2019-01-02T00:34:38.451Z,28.87
2019-01-02T00:37:08.468Z,32.60
2019-01-02T00:39:38.516Z,28.97
2019-01-02T00:42:08.808Z,27.43
2019-01-02T00:44:38.550Z,32.20
2019-01-02T00:47:08.458Z,29.23
2019-01-02T00:49:38.513Z,24.30
2019-01-02T00:52:08.499Z,27.47
2019-01-02T00:54:38.220Z,27.40
2019-01-02T00:57:08.309Z,33.47
2019-01-02T00:59:38.167Z,35.37
2019-01-02T01:02:08.229Z,29.43
2019-01-02T01:04:37.981Z,28.07
2019-01-02T01:07:07.794Z,28.20
2019-01-02T01:09:37.645Z,25.83
2019-01-02T01:12:07.529Z,22.97
2019-01-02T01:14:37.450Z,27.93
2019-01-02T01:17:07.406Z,25.23
2019-01-02T01:19:37.303Z,29.93
2019-01-02T01:22:07.385Z,31.23
2019-01-02T01:24:38.151Z,28.10
2019-01-02T01:27:08.188Z,31.43
2019-01-02T01:29:37.988Z,27.77
2019-01-02T01:32:07.982Z,30.10
2019-01-02T01:34:38.226Z,31.70
2019-01-02T01:37:08.142Z,27.97
2019-01-02T01:39:38.228Z,28.63
2019-01-02T01:42:08.173Z,28.33
2019-01-02T01:44:38.091Z,28.98
2019-01-02T01:47:08.165Z,29.27
2019-01-02T01:49:37.931Z,26.73
2019-01-02T01:52:07.890Z,26.43
2019-01-02T01:54:38.184Z,29.60
2019-01-02T01:57:08.073Z,24.57
2019-01-02T01:59:38.034Z,27.77
2019-01-02T02:02:07.819Z,25.47
2019-01-02T02:04:37.618Z,26.10
2019-01-02T02:07:07.871Z,24.47
2019-01-02T02:09:37.562Z,20.83
2019-01-02T02:12:07.370Z,25.63
2019-01-02T02:14:37.674Z,22.63
2019-01-02T02:17:07.521Z,28.15
2019-01-02T02:19:37.268Z,27.40
2019-01-02T02:22:07.124Z,27.03
2019-01-02T02:24:36.894Z,27.13
2019-01-02T02:27:07.191Z,24.30
2019-01-02T02:29:37.289Z,30.40
2019-01-02T02:32:07.495Z,31.53
2019-01-02T02:34:37.135Z,32.57
2019-01-02T02:37:06.842Z,30.77
2019-01-02T02:39:36.809Z,40.40
2019-01-02T02:42:06.990Z,41.10
2019-01-02T02:44:37.117Z,39.20
2019-01-02T02:47:06.980Z,46.60
2019-01-02T02:49:36.678Z,31.33
2019-01-02T02:52:06.555Z,26.00
2019-01-02T02:54:36.357Z,23.63
2019-01-02T02:57:06.239Z,26.57
2019-01-02T02:59:35.898Z,27.47
2019-01-02T03:02:05.823Z,25.67
2019-01-02T03:04:36.258Z,25.60
2019-01-02T03:07:06.167Z,24.73
2019-01-02T03:09:36.278Z,26.33
2019-01-02T03:12:06.171Z,27.65
2019-01-02T03:14:36.205Z,23.67
2019-01-02T03:17:06.229Z,24.07
2019-01-02T03:19:36.421Z,23.90
2019-01-02T03:22:06.586Z,22.97
2019-01-02T03:24:36.788Z,25.47
2019-01-02T03:27:06.798Z,21.70
2019-01-02T03:29:36.532Z,30.07
2019-01-02T03:32:06.460Z,25.93
2019-01-02T03:34:36.616Z,27.87
2019-01-02T03:37:06.503Z,29.53
2019-01-02T03:39:36.215Z,38.37
2019-01-02T03:42:06.257Z,39.92
2019-01-02T03:44:36.028Z,42.70
2019-01-02T03:47:05.854Z,45.70
2019-01-02T03:49:35.813Z,42.07
2019-01-02T03:52:05.667Z,42.73
2019-01-02T03:54:35.486Z,44.20
2019-01-02T03:57:05.456Z,36.97
2019-01-02T03:59:35.329Z,30.50
2019-01-02T04:02:05.037Z,27.23
2019-01-02T04:04:35.015Z,35.90
2019-01-02T04:07:04.980Z,45.97
2019-01-02T04:09:35.182Z,33.47
2019-01-02T04:12:05.660Z,32.97
2019-01-02T04:14:35.445Z,29.67
2019-01-02T04:17:05.156Z,32.37
2019-01-02T04:19:35.031Z,28.87
2019-01-02T04:22:04.874Z,30.93
2019-01-02T04:24:34.711Z,29.03
2019-01-02T04:27:04.768Z,28.97
2019-01-02T04:29:34.528Z,25.10
2019-01-02T04:32:05.255Z,25.93
2019-01-02T04:34:35.134Z,28.93
2019-01-02T04:37:05.163Z,27.67
2019-01-02T04:39:34.815Z,27.73
2019-01-02T04:42:04.839Z,25.17
2019-01-02T04:44:34.692Z,29.97
2019-01-02T04:47:04.425Z,27.83
2019-01-02T04:49:34.265Z,44.90
2019-01-02T04:52:04.299Z,50.40
2019-01-02T04:54:34.141Z,47.20
2019-01-02T04:57:04.033Z,45.93
2019-01-02T04:59:33.839Z,45.27
2019-01-02T05:02:03.620Z,47.37
2019-01-02T05:04:33.421Z,40.93
2019-01-02T05:07:03.072Z,39.17
2019-01-02T05:09:33.150Z,46.03
2019-01-02T05:12:03.024Z,45.37
2019-01-02T05:14:32.811Z,48.60
2019-01-02T05:17:02.789Z,48.97
2019-01-02T05:19:32.545Z,38.50
2019-01-02T05:22:02.356Z,37.13
2019-01-02T05:24:32.144Z,35.87
2019-01-02T05:27:01.852Z,31.83
2019-01-02T05:29:31.522Z,35.77
2019-01-02T05:32:01.335Z,33.03
2019-01-02T05:34:31.286Z,32.13
2019-01-02T05:37:01.062Z,37.37
2019-01-02T05:39:30.864Z,27.63
2019-01-02T05:42:01.025Z,22.27
2019-01-02T05:44:30.931Z,27.30
2019-01-02T05:47:01.126Z,26.90
2019-01-02T05:49:31.211Z,31.20
2019-01-02T05:52:00.860Z,25.87
2019-01-02T05:54:30.692Z,27.53
2019-01-02T05:57:01.947Z,32.90
2019-01-02T05:59:31.758Z,29.73
2019-01-02T06:02:01.463Z,37.63
2019-01-02T06:04:31.330Z,38.77
2019-01-02T06:07:01.091Z,48.23
2019-01-02T06:09:31.113Z,31.13
2019-01-02T06:12:01.078Z,25.10
2019-01-02T06:14:30.914Z,31.27
2019-01-02T06:17:00.736Z,29.47
2019-01-02T06:19:30.564Z,29.00
2019-01-02T06:22:00.488Z,26.37
2019-01-02T06:24:30.379Z,24.03
2019-01-02T06:27:00.674Z,23.37
2019-01-02T06:29:31.667Z,40.20
2019-01-02T06:32:01.589Z,20.57
2019-01-02T06:34:32.019Z,23.40
2019-01-02T06:37:02.025Z,21.20
2019-01-02T06:39:31.817Z,30.53
2019-01-02T06:42:01.647Z,43.30
2019-01-02T06:44:31.511Z,42.70
2019-01-02T06:47:01.271Z,36.37
2019-01-02T06:49:30.980Z,40.47
2019-01-02T06:52:00.959Z,46.00
2019-01-02T06:54:30.938Z,53.27
2019-01-02T06:57:00.742Z,54.57
2019-01-02T06:59:31.419Z,54.93
2019-01-02T07:02:01.184Z,46.53
2019-01-02T07:04:31.032Z,50.60
2019-01-02T07:07:01.273Z,41.80
2019-01-02T07:09:31.032Z,41.17
2019-01-02T07:12:00.845Z,38.07
2019-01-02T07:14:31.902Z,35.17
2019-01-02T07:17:01.716Z,29.93
2019-01-02T07:19:31.628Z,30.33
2019-01-02T07:22:01.479Z,27.20
2019-01-02T07:24:31.647Z,28.30
2019-01-02T07:27:01.263Z,30.37
2019-01-02T07:29:32.257Z,32.23
2019-01-02T07:32:01.947Z,35.13
2019-01-02T07:35:06.113Z,33.83
2019-01-02T07:38:21.439Z,29.77
2019-01-02T07:41:35.086Z,35.40
2019-01-02T07:44:45.550Z,41.83
2019-01-02T07:48:01.692Z,39.07
2019-01-02T07:51:10.601Z,31.47
2019-01-02T07:54:20.895Z,41.53
2019-01-02T07:57:40.179Z,36.30
2019-01-02T08:00:38.919Z,32.60
2019-01-02T08:03:38.761Z,34.67
2019-01-02T08:06:33.688Z,39.83
2019-01-02T08:09:55.464Z,24.97
2019-01-02T08:13:14.523Z,29.50
2019-01-02T08:16:25.109Z,23.93
2019-01-02T08:19:44.885Z,26.97
2019-01-02T08:22:51.259Z,28.50
2019-01-02T08:25:36.670Z,29.13
2019-01-02T08:29:01.953Z,34.37
2019-01-02T08:32:23.244Z,25.40
2019-01-02T08:35:16.838Z,36.53
2019-01-02T08:38:19.635Z,26.67
2019-01-02T08:41:03.773Z,26.77
2019-01-02T08:44:17.455Z,30.57
2019-01-02T08:47:27.993Z,24.87
2019-01-02T08:50:48.513Z,31.40
2019-01-02T08:54:14.457Z,33.87
2019-01-02T08:57:29.263Z,22.07
2019-01-02T09:00:43.976Z,28.57
2019-01-02T09:04:05.407Z,30.77
2019-01-02T09:07:30.913Z,29.53
2019-01-02T09:10:44.565Z,30.70
2019-01-02T09:14:09.985Z,35.53
2019-01-02T09:17:31.097Z,32.63
2019-01-02T09:20:52.929Z,41.07
2019-01-02T09:24:14.628Z,30.17
2019-01-02T09:27:09.511Z,24.57
2019-01-02T09:30:39.187Z,25.07
2019-01-02T09:33:52.522Z,29.60
2019-01-02T09:37:16.844Z,22.77
2019-01-02T09:40:33.559Z,28.67
2019-01-02T09:43:37.425Z,24.30
2019-01-02T09:46:46.429Z,24.97
2019-01-02T09:49:42.704Z,27.30
2019-01-02T09:52:56.601Z,30.90
2019-01-02T09:56:16.432Z,28.03
2019-01-02T09:59:29.827Z,26.93
2019-01-02T10:02:55.096Z,32.20
2019-01-02T10:05:58.483Z,28.07
2019-01-02T10:09:16.801Z,34.90
2019-01-02T10:12:33.736Z,34.80
2019-01-02T10:15:48.236Z,31.67
2019-01-02T10:19:06.240Z,31.50
2019-01-02T10:21:59.643Z,32.80
2019-01-02T10:25:11.709Z,29.87
2019-01-02T10:28:28.767Z,23.13
2019-01-02T10:31:37.451Z,27.60
2019-01-02T10:34:20.416Z,15.80
2019-01-02T10:37:13.715Z,25.17
2019-01-02T10:40:31.628Z,31.73
2019-01-02T10:43:24.426Z,30.30
2019-01-02T10:46:09.244Z,32.03
2019-01-02T10:49:23.340Z,24.73
2019-01-02T10:52:36.304Z,31.17
2019-01-02T10:55:53.693Z,29.53
2019-01-02T10:59:02.888Z,27.10
2019-01-02T11:01:59.780Z,16.90
2019-01-02T11:05:34.576Z,18.70
2019-01-02T11:08:47.247Z,22.50
2019-01-02T11:11:45.780Z,32.53
2019-01-02T11:15:01.965Z,33.27
2019-01-02T11:18:21.366Z,14.63
2019-01-02T11:21:23.185Z,17.37
2019-01-02T11:24:42.818Z,14.73
2019-01-02T11:28:08.610Z,13.40
2019-01-02T11:31:14.800Z,20.33
2019-01-02T11:34:24.832Z,13.77
2019-01-02T11:37:47.117Z,14.30
2019-01-02T11:41:00.602Z,17.30
2019-01-02T11:44:26.183Z,13.17
2019-01-02T11:46:56.027Z,15.33
2019-01-02T11:49:26.011Z,15.57
2019-01-02T11:51:55.813Z,15.73
2019-01-02T11:54:25.757Z,13.13
2019-01-02T11:56:55.952Z,12.03
2019-01-02T11:59:25.794Z,14.83
2019-01-02T12:01:56.830Z,11.30
2019-01-02T12:04:26.675Z,11.00
2019-01-02T12:06:56.775Z,11.27
2019-01-02T12:09:26.608Z,11.50
2019-01-02T12:11:56.268Z,12.33
2019-01-02T12:14:25.983Z,11.33
2019-01-02T12:16:55.729Z,12.53
2019-01-02T12:19:25.427Z,9.20
2019-01-02T12:21:56.544Z,12.70
2019-01-02T12:24:26.351Z,13.53
2019-01-02T12:26:56.387Z,11.87
2019-01-02T12:29:26.226Z,15.97
2019-01-02T12:31:56.116Z,14.43
2019-01-02T12:34:25.933Z,13.47
2019-01-02T12:36:55.693Z,18.20
2019-01-02T12:39:25.455Z,17.47
2019-01-02T12:41:55.412Z,15.27
2019-01-02T12:44:25.181Z,15.50
2019-01-02T12:46:54.913Z,16.40
2019-01-02T12:49:24.775Z,16.43
2019-01-02T12:51:54.548Z,17.53
2019-01-02T12:54:24.271Z,15.30
2019-01-02T12:56:54.014Z,15.53
2019-01-02T12:59:26.851Z,20.13
2019-01-02T13:03:00.296Z,16.43
2019-01-02T13:06:12.652Z,18.03
2019-01-02T13:09:28.296Z,22.65
2019-01-02T13:12:40.361Z,24.00
2019-01-02T13:15:52.014Z,19.30
2019-01-02T13:19:08.456Z,20.63
2019-01-02T13:22:00.744Z,22.37
2019-01-02T13:24:51.864Z,23.63
2019-01-02T13:27:44.006Z,19.70
2019-01-02T13:30:48.893Z,21.23
2019-01-02T13:34:00.651Z,23.13
2019-01-02T13:37:17.306Z,25.57
2019-01-02T13:40:19.009Z,22.10
2019-01-02T13:43:14.279Z,24.03
2019-01-02T13:46:21.936Z,24.37
2019-01-02T13:49:42.391Z,21.53
2019-01-02T13:52:13.533Z,21.30
2019-01-02T13:54:43.336Z,17.20
2019-01-02T13:57:13.242Z,20.97
2019-01-02T13:59:44.422Z,17.17
2019-01-02T14:02:14.114Z,22.90
2019-01-02T14:04:46.495Z,22.37
2019-01-02T14:07:17.642Z,17.77
2019-01-02T14:09:47.563Z,17.43
2019-01-02T14:12:17.294Z,21.70
2019-01-02T14:14:48.408Z,19.33
2019-01-02T14:17:18.318Z,20.60
2019-01-02T14:19:48.039Z,18.17
2019-01-02T14:22:18.008Z,16.43
2019-01-02T14:24:47.767Z,15.70
2019-01-02T14:27:17.575Z,21.53
2019-01-02T14:29:47.440Z,20.93
2019-01-02T14:32:17.305Z,20.73
2019-01-02T14:34:47.037Z,21.93
2019-01-02T14:37:18.188Z,19.83
2019-01-02T14:39:47.967Z,23.10
2019-01-02T14:42:17.791Z,23.70
2019-01-02T14:44:48.548Z,22.63
2019-01-02T14:47:18.445Z,35.33
2019-01-02T14:49:49.449Z,27.00
2019-01-02T14:52:19.156Z,26.83
2019-01-02T14:54:49.019Z,31.40
2019-01-02T14:57:18.925Z,34.57
2019-01-02T14:59:48.983Z,28.10
2019-01-02T15:02:18.678Z,23.73
2019-01-02T15:04:48.580Z,25.90
2019-01-02T15:07:18.334Z,22.67
2019-01-02T15:09:48.005Z,19.63
2019-01-02T15:12:17.930Z,19.20
2019-01-02T15:14:47.987Z,20.37
2019-01-02T15:17:17.792Z,24.67
2019-01-02T15:19:47.666Z,19.63
2019-01-02T15:22:17.528Z,67.17
2019-01-02T15:24:49.578Z,24.07
2019-01-02T15:27:18.958Z,25.47
2019-01-02T15:29:49.043Z,23.53
2019-01-02T15:32:18.894Z,24.40
2019-01-02T15:34:49.969Z,29.23
2019-01-02T15:37:19.878Z,34.58
2019-01-02T15:39:49.842Z,42.13
2019-01-02T15:42:19.784Z,41.50
2019-01-02T15:44:49.590Z,44.33
2019-01-02T15:47:20.313Z,32.63
2019-01-02T15:49:50.151Z,55.27
2019-01-02T15:52:19.874Z,52.40
2019-01-02T15:54:49.712Z,36.30
2019-01-02T15:57:19.497Z,37.93
2019-01-02T15:59:49.907Z,35.50
2019-01-02T16:02:21.038Z,26.73
2019-01-02T16:04:50.883Z,23.53
2019-01-02T16:07:20.700Z,20.53
2019-01-02T16:09:53.234Z,18.40
2019-01-02T16:12:22.883Z,19.03
2019-01-02T16:14:52.795Z,19.90
2019-01-02T16:17:22.559Z,20.87
2019-01-02T16:19:52.333Z,20.73
2019-01-02T16:22:22.366Z,21.40
2019-01-02T16:24:53.504Z,26.67
2019-01-02T16:27:23.326Z,24.83
2019-01-02T16:29:53.150Z,22.70
2019-01-02T16:32:23.094Z,23.27
2019-01-02T16:34:53.594Z,24.37
2019-01-02T16:37:23.392Z,33.20
2019-01-02T16:39:54.017Z,43.83
2019-01-02T16:42:23.759Z,33.47
2019-01-02T16:44:53.961Z,25.20
2019-01-02T16:47:24.902Z,26.20
2019-01-02T16:49:54.702Z,27.13
2019-01-02T16:52:24.504Z,27.13
2019-01-02T16:54:55.862Z,25.70
2019-01-02T16:57:25.721Z,23.87
2019-01-02T16:59:55.713Z,28.07
2019-01-02T17:02:26.972Z,25.10
2019-01-02T17:04:57.612Z,23.67
2019-01-02T17:07:27.491Z,22.23
2019-01-02T17:09:58.967Z,27.60
2019-01-02T17:12:28.798Z,28.43
2019-01-02T17:14:58.752Z,27.87
2019-01-02T17:17:29.978Z,25.33
2019-01-02T17:19:59.933Z,28.20
2019-01-02T17:22:29.753Z,31.80
2019-01-02T17:24:59.772Z,25.07
2019-01-02T17:27:29.768Z,25.97
2019-01-02T17:29:59.879Z,23.77
2019-01-02T17:32:29.769Z,27.80
2019-01-02T17:34:59.636Z,36.03
2019-01-02T17:37:29.476Z,28.27
2019-01-02T17:39:59.533Z,45.17
2019-01-02T17:42:30.646Z,43.73
2019-01-02T17:45:00.387Z,47.60
2019-01-02T17:47:30.182Z,30.87
2019-01-02T17:50:00.301Z,30.43
2019-01-02T17:52:30.158Z,36.20
2019-01-02T17:54:59.926Z,28.20
2019-01-02T17:57:29.748Z,32.47
2019-01-02T18:00:00.751Z,28.20
2019-01-02T18:02:30.736Z,30.13
2019-01-02T18:05:00.829Z,32.40
2019-01-02T18:07:31.868Z,32.63
2019-01-02T18:10:01.580Z,35.60
2019-01-02T18:12:31.321Z,48.47
2019-01-02T18:15:01.120Z,45.37
2019-01-02T18:17:30.837Z,42.03
2019-01-02T18:20:00.659Z,36.93
2019-01-02T18:22:31.589Z,44.70
2019-01-02T18:25:01.363Z,46.77
2019-01-02T18:27:31.408Z,46.93
2019-01-02T18:30:01.241Z,51.73
2019-01-02T18:32:31.073Z,57.43
2019-01-02T18:35:01.165Z,60.20
2019-01-02T18:37:30.950Z,77.20
2019-01-02T18:40:00.893Z,87.37
2019-01-02T18:42:30.713Z,72.87
2019-01-02T18:45:00.496Z,70.37
2019-01-02T18:47:30.656Z,71.93
2019-01-02T18:50:00.490Z,56.20
2019-01-02T18:52:30.362Z,66.00
2019-01-02T18:55:00.273Z,51.93
2019-01-02T18:57:30.525Z,42.70
2019-01-02T19:00:06.105Z,46.13
2019-01-02T19:02:32.936Z,41.98
2019-01-02T19:05:02.709Z,32.60
2019-01-02T19:07:32.417Z,24.37
2019-01-02T19:10:02.384Z,37.67
2019-01-02T19:12:32.531Z,28.17
2019-01-02T19:15:02.283Z,33.33
2019-01-02T19:17:32.032Z,38.30
2019-01-02T19:20:01.969Z,26.77
2019-01-02T19:22:31.816Z,33.83
2019-01-02T19:25:01.900Z,38.10
2019-01-02T19:27:31.728Z,38.27
2019-01-02T19:30:01.558Z,43.30
2019-01-02T19:32:31.535Z,35.90
2019-01-02T19:35:02.881Z,29.50
2019-01-02T19:37:32.775Z,32.13
2019-01-02T19:40:03.171Z,32.93
2019-01-02T19:42:33.263Z,32.83
2019-01-02T19:45:03.356Z,27.47
2019-01-02T19:47:34.924Z,26.03
2019-01-02T19:50:05.101Z,25.97
2019-01-02T19:52:35.007Z,21.53
2019-01-02T19:55:05.127Z,22.27
2019-01-02T19:57:35.168Z,23.00
2019-01-02T20:00:06.686Z,22.13
2019-01-02T20:02:36.490Z,12.67
2019-01-02T20:05:06.464Z,12.93
2019-01-02T20:07:36.314Z,10.63
2019-01-02T20:10:09.360Z,13.80
2019-01-02T20:12:39.398Z,15.17
2019-01-02T20:15:12.499Z,15.43
2019-01-02T20:17:42.483Z,16.93
2019-01-02T20:20:13.671Z,21.30
2019-01-02T20:22:43.632Z,12.57
2019-01-02T20:25:13.654Z,16.42
2019-01-02T20:27:43.398Z,14.07
2019-01-02T20:30:14.810Z,12.40
2019-01-02T20:32:44.648Z,13.13
2019-01-02T20:35:14.587Z,11.33
2019-01-02T20:37:44.470Z,12.13
2019-01-02T20:40:14.286Z,9.70
2019-01-02T20:42:45.395Z,9.00
2019-01-02T20:45:15.309Z,9.53
2019-01-02T20:47:48.072Z,11.23
2019-01-02T20:50:16.667Z,9.83
2019-01-02T20:52:46.557Z,8.40
2019-01-02T20:55:16.872Z,9.17
2019-01-02T20:57:46.817Z,7.00
2019-01-02T21:00:16.702Z,7.60
2019-01-02T21:02:46.615Z,7.93
2019-01-02T21:05:16.470Z,8.10
2019-01-02T21:07:46.252Z,6.57
2019-01-02T21:10:16.159Z,7.73
2019-01-02T21:12:46.029Z,7.57
2019-01-02T21:15:15.777Z,12.30
2019-01-02T21:17:45.687Z,18.37
2019-01-02T21:20:15.567Z,12.67
2019-01-02T21:22:45.394Z,17.37
2019-01-02T21:25:16.168Z,21.10
2019-01-02T21:27:45.976Z,21.50
2019-01-02T21:30:15.821Z,20.00
2019-01-02T21:32:45.521Z,21.93
2019-01-02T21:35:15.228Z,25.30
2019-01-02T21:37:45.099Z,23.37
2019-01-02T21:40:15.085Z,22.03
2019-01-02T21:42:44.849Z,22.07
2019-01-02T21:45:14.845Z,20.53
2019-01-02T21:47:44.407Z,23.00
2019-01-02T21:50:14.317Z,22.00
2019-01-02T21:52:44.161Z,21.87
2019-01-02T21:55:14.048Z,23.03
2019-01-02T21:57:44.107Z,24.63
2019-01-02T22:00:15.778Z,31.27
2019-01-02T22:02:45.891Z,18.97
2019-01-02T22:05:15.861Z,13.63
2019-01-02T22:07:45.620Z,22.10
2019-01-02T22:10:15.288Z,20.37
2019-01-02T22:12:45.098Z,19.40
2019-01-02T22:15:14.860Z,15.70
2019-01-02T22:17:44.713Z,10.23
2019-01-02T22:20:14.649Z,13.37
2019-01-02T22:22:44.508Z,11.03
2019-01-02T22:25:14.597Z,10.80
2019-01-02T22:27:44.600Z,10.13
2019-01-02T22:30:15.066Z,11.40
2019-01-02T22:32:44.862Z,8.73
2019-01-02T22:35:14.654Z,7.60
2019-01-02T22:37:44.467Z,9.63
2019-01-02T22:40:14.337Z,7.47
2019-01-02T22:42:44.248Z,7.20
2019-01-02T22:45:14.061Z,7.17
2019-01-02T22:47:43.934Z,6.67
2019-01-02T22:50:13.924Z,6.43
2019-01-02T22:52:44.218Z,8.53
2019-01-02T22:55:13.984Z,7.20
2019-01-02T22:57:43.802Z,9.63
2019-01-02T23:00:32.404Z,8.37
2019-01-02T23:03:29.978Z,11.47
2019-01-02T23:06:17.311Z,6.20
2019-01-02T23:09:08.858Z,8.67
2019-01-02T23:11:56.905Z,7.17
2019-01-02T23:14:45.688Z,5.77
2019-01-02T23:17:43.578Z,6.33
2019-01-02T23:20:35.424Z,7.43
2019-01-02T23:23:22.575Z,7.37
2019-01-02T23:26:10.066Z,6.33
2019-01-02T23:29:15.025Z,5.53
2019-01-02T23:32:12.566Z,7.67
2019-01-02T23:34:59.771Z,7.97
2019-01-02T23:37:51.417Z,8.13
2019-01-02T23:40:48.727Z,7.03
2019-01-02T23:43:36.475Z,4.13
2019-01-02T23:46:24.256Z,7.57
2019-01-02T23:49:28.104Z,7.97
2019-01-02T23:52:15.760Z,5.60
2019-01-02T23:55:04.634Z,11.93
2019-01-02T23:57:52.209Z,11.80
